Airfield :
LOGIN :

Register | Disclaimer

   EN    FR    IT 

 










Legend :    VFR   Marginal VFR   IFR   Intensive IFR   Very Intensive IFR
Visi :
Ceiling :
>= 8 km
>= 3000ft
5 to 8 km
1000 to 3000 ft
1500m to 5 km
500 to 1000 ft
800 to 1500m
200 to 500 ft
< 800m
< 200 ft
Symbols :   Thunderstorms  Fog  Heavy snow  Heavy precipitations  Wind > 20 kt
SIGMETs :     Misc.  Thunderstorms  Icing  Turbulence  Mountain Waves  Volcanic Ashes






- Airport Elevation : 1058 ft
- IATA code : SCN


EDDR - Saarbrücken

CURRENT METAR :
  • 131120Z 25020G32KT 9999 -RA FEW013 BKN015 05/03 Q0980 NOSIG

EXPIRED METARs :
  • 131050Z 24021G32KT 9999 -RA FEW012 BKN015 05/03 Q0979 NOSIG
  • 131020Z 24019KT 9999 -RA FEW010 BKN013 BKN020 05/04 Q0979 BECMG BKN015
  • 130950Z 25018KT 9999 -RA FEW008 BKN012 BKN020 04/04 Q0978 RERA BECMG BKN015
  • 130920Z 25019G30KT 9000 RA FEW008 BKN012 05/04 Q0977 BECMG NSW BKN015
  • 130850Z 24018KT 9999 -RA BKN010 BKN014 05/04 Q0977 BECMG BKN015

TAF AMD TAF EDDR
Valid from the 13 at 07:00 until the 14 at 06:00 UTC


130706Z 1307/1406 22011KT 9999 BKN012
TEMPO 1307/1317 2500 RADZ BKN003
BECMG 1310/1312 23015G30KT
TEMPO 1311/1317 22020G35KT
TEMPO 1319/1324 BKN015
TEMPO 1400/1406 4000 RA BKN008



MET'MAP, your aeronautical weather chart ! - Copyright ORBIFLY December 2007 - Disclaimer

ORBIFLY MET'MAP TEAM :

Programming & Development : Alexandra Zaïnal
Concept & original design : Baudouin d'Aumeries
Assistance for programming : Marc-Olivier Méhu
Technical & hardware support : Manuel Goepfert

Contact : metmap@orbifly.com




SOURCES & CREDITS :

   NOAA